Time;durP1;ratioP1;P1;durP2;ratioP2;P2;SDS_P1;SDS_P2;PMS_P1;PMS_P2;Temp;Humidity;BMP_temperature;BMP_pressure;BME280_temperature;BME280_humidity;BME280_pressure;Samples;Min_cycle;Max_cycle;Signal;HPM_P1;HPM_P2
2022/09/21 00:00:42;;;;;;;1.98;1.17;;;;;;;;;;8321391;28;20032;-58
2022/09/21 00:04:42;;;;;;;4.15;1.20;;;;;;;;;;8323458;28;20029;-57
2022/09/21 00:08:43;;;;;;;4.57;1.33;;;;;;;;;;8325421;28;20087;-57
2022/09/21 00:12:44;;;;;;;2.95;1.33;;;;;;;;;;8323951;28;20024;-59
2022/09/21 00:16:44;;;;;;;1.50;1.27;;;;;;;;;;8326296;28;20045;-57
2022/09/21 00:20:45;;;;;;;4.30;1.30;;;;;;;;;;8325772;28;20036;-58
2022/09/21 00:24:45;;;;;;;5.88;1.40;;;;;;;;;;8323963;28;20322;-57
2022/09/21 00:28:45;;;;;;;3.47;1.50;;;;;;;;;;8327704;28;20041;-57
2022/09/21 00:32:46;;;;;;;2.83;1.40;;;;;;;;;;8325551;28;20041;-57
2022/09/21 00:36:46;;;;;;;4.88;1.20;;;;;;;;;;8327869;28;20135;-57
2022/09/21 00:40:46;;;;;;;3.17;1.10;;;;;;;;;;8325643;28;20016;-57
2022/09/21 00:44:46;;;;;;;3.03;1.17;;;;;;;;;;8325110;28;20017;-57
2022/09/21 00:48:47;;;;;;;1.23;1.05;;;;;;;;;;8326473;28;20044;-57
2022/09/21 00:52:49;;;;;;;2.70;1.30;;;;;;;;;;8327869;28;20121;-57
2022/09/21 00:56:50;;;;;;;2.63;1.20;;;;;;;;;;8325966;28;20042;-59
2022/09/21 01:00:51;;;;;;;2.17;1.25;;;;;;;;;;8325034;28;20065;-57
2022/09/21 01:04:55;;;;;;;5.43;1.30;;;;;;;;;;8330441;28;20021;-57
2022/09/21 01:08:57;;;;;;;3.58;1.40;;;;;;;;;;8325963;28;20107;-56
2022/09/21 01:13:01;;;;;;;2.00;1.20;;;;;;;;;;8325759;28;20551;-57
2022/09/21 01:17:08;;;;;;;2.90;1.00;;;;;;;;;;8326188;28;20477;-57
2022/09/21 01:21:11;;;;;;;1.98;1.27;;;;;;;;;;8326844;28;20070;-57
2022/09/21 01:25:23;;;;;;;3.23;1.40;;;;;;;;;;8324947;28;20576;-57
2022/09/21 01:29:26;;;;;;;3.85;1.48;;;;;;;;;;8322977;28;20017;-59
2022/09/21 01:33:29;;;;;;;2.40;1.42;;;;;;;;;;8322231;28;20033;-57
2022/09/21 01:37:49;;;;;;;1.75;1.20;;;;;;;;;;8322446;28;20037;-57
2022/09/21 01:41:51;;;;;;;4.28;1.20;;;;;;;;;;8310959;28;20032;-57
2022/09/21 01:45:53;;;;;;;1.13;0.93;;;;;;;;;;8327298;28;20392;-57
2022/09/21 01:49:54;;;;;;;4.40;1.52;;;;;;;;;;8326252;28;20408;-59
2022/09/21 01:53:57;;;;;;;2.15;1.15;;;;;;;;;;8320431;28;20020;-57
2022/09/21 01:58:04;;;;;;;5.43;1.40;;;;;;;;;;8323784;28;20102;-57
2022/09/21 02:02:08;;;;;;;4.25;1.27;;;;;;;;;;8321989;28;20036;-60
2022/09/21 02:06:10;;;;;;;4.30;1.33;;;;;;;;;;8323369;28;20032;-57
2022/09/21 02:10:14;;;;;;;3.50;1.55;;;;;;;;;;8324439;28;20143;-57
2022/09/21 02:14:16;;;;;;;3.40;1.60;;;;;;;;;;8324040;28;20022;-57
2022/09/21 02:18:34;;;;;;;2.75;1.35;;;;;;;;;;8322929;28;20042;-58
2022/09/21 02:22:44;;;;;;;1.67;1.40;;;;;;;;;;8323006;28;20056;-57
2022/09/21 02:26:48;;;;;;;2.75;1.55;;;;;;;;;;8325550;28;20055;-57
2022/09/21 02:31:02;;;;;;;2.20;1.52;;;;;;;;;;8320012;28;20041;-57
2022/09/21 02:35:06;;;;;;;2.25;1.25;;;;;;;;;;8320820;28;20029;-58
2022/09/21 02:39:07;;;;;;;;;;;;;;;;;;8326113;28;21053;-57
2022/09/21 02:43:10;;;;;;;2.88;1.40;;;;;;;;;;8325445;28;20019;-57
2022/09/21 02:47:11;;;;;;;1.55;1.30;;;;;;;;;;8322860;28;20035;-57
2022/09/21 02:51:17;;;;;;;6.18;1.50;;;;;;;;;;8321039;28;20111;-57
2022/09/21 02:55:17;;;;;;;2.67;1.50;;;;;;;;;;8322860;28;20036;-64
2022/09/21 02:59:17;;;;;;;3.65;1.70;;;;;;;;;;8323920;28;20101;-57
2022/09/21 03:03:19;;;;;;;3.53;1.60;;;;;;;;;;8321676;28;20029;-57
2022/09/21 03:07:20;;;;;;;1.98;1.30;;;;;;;;;;8321213;28;20025;-57
2022/09/21 03:11:20;;;;;;;1.97;1.40;;;;;;;;;;8324815;28;20123;-57
2022/09/21 03:15:20;;;;;;;2.28;1.63;;;;;;;;;;8320727;28;20283;-57
2022/09/21 03:19:20;;;;;;;3.13;1.77;;;;;;;;;;8322593;28;20045;-57
2022/09/21 03:23:20;;;;;;;3.50;1.60;;;;;;;;;;8324133;28;20036;-57
2022/09/21 03:27:21;;;;;;;2.33;1.45;;;;;;;;;;8320460;28;20150;-57
2022/09/21 03:31:22;;;;;;;2.72;1.40;;;;;;;;;;8321460;28;20034;-57
2022/09/21 03:35:24;;;;;;;2.25;1.60;;;;;;;;;;8320839;28;20118;-57
2022/09/21 03:39:24;;;;;;;1.70;1.60;;;;;;;;;;8321547;28;20032;-57
2022/09/21 03:43:25;;;;;;;5.68;1.73;;;;;;;;;;8320697;28;20025;-59
2022/09/21 03:47:25;;;;;;;2.90;1.70;;;;;;;;;;8320787;28;21144;-57
2022/09/21 03:51:25;;;;;;;3.92;1.98;;;;;;;;;;8326337;28;20916;-58
2022/09/21 03:55:26;;;;;;;1.73;1.40;;;;;;;;;;8327263;28;20020;-57
2022/09/21 03:59:26;;;;;;;2.17;1.35;;;;;;;;;;8333196;28;20108;-58
2022/09/21 04:03:28;;;;;;;2.03;1.60;;;;;;;;;;8326774;28;20024;-58
2022/09/21 04:07:34;;;;;;;3.25;1.70;;;;;;;;;;8328172;28;20275;-57
2022/09/21 04:11:34;;;;;;;2.33;1.60;;;;;;;;;;8329301;28;20031;-58
2022/09/21 04:15:35;;;;;;;2.40;1.50;;;;;;;;;;8326342;28;20076;-58
2022/09/21 04:19:35;;;;;;;2.58;1.83;;;;;;;;;;8327155;28;20377;-56
2022/09/21 04:23:35;;;;;;;1.65;1.50;;;;;;;;;;8325331;28;20140;-58
2022/09/21 04:27:36;;;;;;;2.97;1.85;;;;;;;;;;8326047;28;20091;-55
2022/09/21 04:31:36;;;;;;;5.57;2.20;;;;;;;;;;8325945;28;20048;-56
2022/09/21 04:35:36;;;;;;;4.75;2.33;;;;;;;;;;8327271;28;20842;-56
2022/09/21 04:39:36;;;;;;;5.93;2.50;;;;;;;;;;8325772;28;20437;-56
2022/09/21 04:43:37;;;;;;;9.45;4.90;;;;;;;;;;8327161;28;20051;-56
2022/09/21 04:47:37;;;;;;;7.38;4.93;;;;;;;;;;8320271;28;20054;-55
2022/09/21 04:51:37;;;;;;;5.28;3.80;;;;;;;;;;8326946;28;20032;-56
2022/09/21 04:55:38;;;;;;;6.07;3.63;;;;;;;;;;8324325;28;20335;-55
2022/09/21 04:59:38;;;;;;;4.88;3.97;;;;;;;;;;8322355;28;20021;-55
2022/09/21 05:03:38;;;;;;;8.82;3.88;;;;;;;;;;8323055;28;20032;-55
2022/09/21 05:07:38;;;;;;;5.18;3.35;;;;;;;;;;8326414;28;20072;-56
2022/09/21 05:11:38;;;;;;;5.47;4.00;;;;;;;;;;8328687;28;20674;-57
2022/09/21 05:15:39;;;;;;;4.68;3.30;;;;;;;;;;8324899;28;20041;-55
2022/09/21 05:19:39;;;;;;;6.80;3.57;;;;;;;;;;8322579;28;20025;-55
2022/09/21 05:23:39;;;;;;;5.07;3.60;;;;;;;;;;8324217;28;20791;-56
2022/09/21 05:27:40;;;;;;;4.87;3.90;;;;;;;;;;8322528;28;20032;-56
2022/09/21 05:31:44;;;;;;;7.60;5.25;;;;;;;;;;8321875;28;20357;-57
2022/09/21 05:35:57;;;;;;;10.60;5.60;;;;;;;;;;8328263;28;20031;-56
2022/09/21 05:39:58;;;;;;;15.90;6.30;;;;;;;;;;8325483;28;20685;-56
2022/09/21 05:43:58;;;;;;;25.75;7.90;;;;;;;;;;8326211;28;20771;-59
2022/09/21 05:48:04;;;;;;;31.30;8.52;;;;;;;;;;8324026;28;20115;-55
2022/09/21 05:52:27;;;;;;;59.08;8.77;;;;;;;;;;8322271;28;20512;-56
2022/09/21 05:56:46;;;;;;;50.17;8.63;;;;;;;;;;8319290;28;20037;-56
2022/09/21 06:00:46;;;;;;;63.92;8.68;;;;;;;;;;8321457;28;20041;-56
2022/09/21 06:04:48;;;;;;;72.20;10.82;;;;;;;;;;8323407;28;20036;-56
2022/09/21 06:08:48;;;;;;;69.07;10.80;;;;;;;;;;8325602;28;20020;-56
2022/09/21 06:12:48;;;;;;;26.03;8.40;;;;;;;;;;8322261;28;20033;-56
2022/09/21 06:16:49;;;;;;;21.98;8.52;;;;;;;;;;8323493;28;21117;-56
2022/09/21 06:20:49;;;;;;;52.60;8.18;;;;;;;;;;8339746;28;20021;-58
2022/09/21 06:24:49;;;;;;;57.22;8.07;;;;;;;;;;8324987;28;20041;-56
2022/09/21 06:28:49;;;;;;;48.47;7.65;;;;;;;;;;8320982;28;20692;-58
2022/09/21 06:32:49;;;;;;;37.17;8.48;;;;;;;;;;8322433;28;20072;-56
2022/09/21 06:36:49;;;;;;;11.85;6.53;;;;;;;;;;8322258;28;20025;-58
2022/09/21 06:40:50;;;;;;;12.43;7.35;;;;;;;;;;8323432;28;20167;-58
2022/09/21 06:44:50;;;;;;;17.60;6.65;;;;;;;;;;8324167;28;21053;-58
2022/09/21 06:48:50;;;;;;;18.15;6.75;;;;;;;;;;8326175;28;20033;-58
2022/09/21 06:52:51;;;;;;;10.45;6.15;;;;;;;;;;8327308;28;20541;-58
2022/09/21 06:56:51;;;;;;;7.38;6.13;;;;;;;;;;8325762;28;20730;-59
2022/09/21 07:00:52;;;;;;;10.27;6.00;;;;;;;;;;8322140;28;20135;-59
2022/09/21 07:04:53;;;;;;;15.80;6.45;;;;;;;;;;8323076;28;20269;-57
2022/09/21 07:08:53;;;;;;;8.52;5.93;;;;;;;;;;8320810;28;20193;-59
2022/09/21 07:12:54;;;;;;;21.15;7.22;;;;;;;;;;8323066;28;20801;-58
2022/09/21 07:16:54;;;;;;;14.85;6.93;;;;;;;;;;8326609;28;20037;-59
2022/09/21 07:20:54;;;;;;;9.15;6.38;;;;;;;;;;8322133;28;20064;-59
2022/09/21 07:24:55;;;;;;;13.73;6.70;;;;;;;;;;8329521;28;20120;-59
2022/09/21 07:28:55;;;;;;;14.15;5.90;;;;;;;;;;8326355;28;20093;-59
2022/09/21 07:32:55;;;;;;;8.57;6.30;;;;;;;;;;8328398;28;20033;-58
2022/09/21 07:36:55;;;;;;;8.02;5.70;;;;;;;;;;8327277;28;20036;-59
2022/09/21 07:40:55;;;;;;;7.78;6.07;;;;;;;;;;8329066;28;20076;-59
2022/09/21 07:44:55;;;;;;;8.27;5.85;;;;;;;;;;8330511;28;20027;-60
2022/09/21 07:48:56;;;;;;;6.45;5.60;;;;;;;;;;8326740;28;20849;-59
2022/09/21 07:52:57;;;;;;;6.55;5.03;;;;;;;;;;8330637;28;20036;-59
2022/09/21 08:01:16;;;;;;;4.70;4.30;;;;;;;;;;8330236;28;20171;-60
2022/09/21 08:05:17;;;;;;;5.38;4.65;;;;;;;;;;8327062;28;20021;-59
2022/09/21 08:09:17;;;;;;;5.13;4.38;;;;;;;;;;8328654;28;20091;-60
2022/09/21 08:13:17;;;;;;;6.72;5.07;;;;;;;;;;8328359;28;20596;-59
2022/09/21 08:17:17;;;;;;;5.23;3.90;;;;;;;;;;8324744;28;20065;-59
2022/09/21 08:21:19;;;;;;;5.57;3.63;;;;;;;;;;8324063;28;20018;-59
2022/09/21 08:25:19;;;;;;;5.55;3.90;;;;;;;;;;8328162;28;21050;-60
2022/09/21 08:29:20;;;;;;;5.22;3.30;;;;;;;;;;8327716;28;20556;-60
2022/09/21 08:33:20;;;;;;;5.55;2.78;;;;;;;;;;8324694;28;20154;-60
2022/09/21 08:37:21;;;;;;;6.85;3.67;;;;;;;;;;8327161;28;20389;-59
2022/09/21 08:41:50;;;;;;;4.60;2.60;;;;;;;;;;8327768;28;20098;-59
2022/09/21 08:45:50;;;;;;;6.40;2.70;;;;;;;;;;8280568;28;20040;-59
2022/09/21 08:49:54;;;;;;;4.27;2.90;;;;;;;;;;8330029;28;20923;-60
2022/09/21 08:54:01;;;;;;;4.90;2.72;;;;;;;;;;8328504;28;20029;-59
2022/09/21 08:58:01;;;;;;;4.22;2.78;;;;;;;;;;8325931;28;20099;-59
2022/09/21 09:02:04;;;;;;;3.90;2.75;;;;;;;;;;8323141;28;20064;-59
2022/09/21 09:06:10;;;;;;;3.60;2.60;;;;;;;;;;8329595;28;20025;-58
2022/09/21 09:10:10;;;;;;;4.60;2.70;;;;;;;;;;8327199;28;20029;-59
2022/09/21 09:14:13;;;;;;;4.10;2.75;;;;;;;;;;8329066;28;20576;-59
2022/09/21 09:18:19;;;;;;;4.22;2.80;;;;;;;;;;8326618;28;20066;-59
2022/09/21 09:22:28;;;;;;;5.10;2.45;;;;;;;;;;8328077;28;20052;-58
2022/09/21 09:26:28;;;;;;;3.75;2.30;;;;;;;;;;8325970;28;20037;-65
2022/09/21 09:30:32;;;;;;;2.90;2.05;;;;;;;;;;8323911;28;20039;-59
2022/09/21 09:34:35;;;;;;;4.18;2.60;;;;;;;;;;8322467;28;20111;-59
2022/09/21 09:38:37;;;;;;;3.17;2.17;;;;;;;;;;8325424;28;20553;-59
2022/09/21 09:42:45;;;;;;;4.22;2.28;;;;;;;;;;8326097;28;20052;-59
2022/09/21 09:46:54;;;;;;;5.85;2.78;;;;;;;;;;8328374;28;20920;-59
2022/09/21 09:50:54;;;;;;;3.20;2.08;;;;;;;;;;8325570;28;20033;-59
2022/09/21 09:54:54;;;;;;;6.00;2.10;;;;;;;;;;8323754;28;20789;-59
2022/09/21 09:58:59;;;;;;;3.50;2.20;;;;;;;;;;8328544;28;20033;-59
2022/09/21 10:02:59;;;;;;;5.53;2.17;;;;;;;;;;8324460;28;20040;-58
2022/09/21 10:06:59;;;;;;;4.70;2.00;;;;;;;;;;8326654;28;20052;-60
2022/09/21 10:11:00;;;;;;;3.70;2.30;;;;;;;;;;8326254;28;20035;-59
2022/09/21 10:15:00;;;;;;;6.60;2.30;;;;;;;;;;8325905;28;20466;-59
2022/09/21 10:19:00;;;;;;;3.47;1.50;;;;;;;;;;8320090;28;20127;-59
2022/09/21 10:23:02;;;;;;;2.13;1.50;;;;;;;;;;8324744;28;20029;-58
2022/09/21 10:27:02;;;;;;;4.35;1.67;;;;;;;;;;8322944;28;20099;-59
2022/09/21 10:31:11;;;;;;;2.47;1.70;;;;;;;;;;8326394;28;20622;-58
2022/09/21 10:35:13;;;;;;;4.90;1.45;;;;;;;;;;8330123;28;20028;-59
2022/09/21 10:39:17;;;;;;;3.67;1.42;;;;;;;;;;8325154;28;20023;-59
2022/09/21 10:43:32;;;;;;;2.55;1.70;;;;;;;;;;8326370;28;20151;-58
2022/09/21 10:47:40;;;;;;;2.42;1.23;;;;;;;;;;8323540;28;20175;-59
2022/09/21 10:51:43;;;;;;;3.85;1.20;;;;;;;;;;8328056;28;20020;-58
2022/09/21 10:55:51;;;;;;;3.13;1.10;;;;;;;;;;8324174;28;20066;-59
2022/09/21 10:59:51;;;;;;;2.35;1.10;;;;;;;;;;8324485;28;20035;-59
2022/09/21 11:04:01;;;;;;;3.00;1.30;;;;;;;;;;8320898;28;20079;-59
2022/09/21 11:08:01;;;;;;;2.33;1.30;;;;;;;;;;8325122;28;20025;-59
2022/09/21 11:12:05;;;;;;;2.90;1.58;;;;;;;;;;8326021;28;20178;-58
2022/09/21 11:16:15;;;;;;;1.33;0.93;;;;;;;;;;8327474;28;20041;-58
2022/09/21 11:20:15;;;;;;;3.13;1.08;;;;;;;;;;8324706;28;20021;-59
2022/09/21 11:24:36;;;;;;;2.63;1.08;;;;;;;;;;8319772;28;20032;-59
2022/09/21 11:28:39;;;;;;;3.30;1.00;;;;;;;;;;8308856;28;20049;-59
2022/09/21 11:32:54;;;;;;;1.95;1.23;;;;;;;;;;8321895;28;20440;-59
2022/09/21 11:36:59;;;;;;;2.50;0.90;;;;;;;;;;8324169;28;20123;-59
2022/09/21 11:41:17;;;;;;;1.73;1.00;;;;;;;;;;8325677;28;20472;-58
2022/09/21 11:45:27;;;;;;;1.20;0.80;;;;;;;;;;8322563;28;20090;-59
2022/09/21 11:49:36;;;;;;;2.50;0.73;;;;;;;;;;8324235;28;20085;-57
2022/09/21 11:53:45;;;;;;;1.50;0.80;;;;;;;;;;8315668;28;20029;-59
2022/09/21 11:57:48;;;;;;;1.60;0.73;;;;;;;;;;8320603;28;20104;-58
2022/09/21 12:01:56;;;;;;;3.03;0.80;;;;;;;;;;8322992;28;20672;-58
2022/09/21 12:06:12;;;;;;;1.13;0.60;;;;;;;;;;8319072;28;21583;-58
2022/09/21 12:10:20;;;;;;;1.85;0.70;;;;;;;;;;8321025;28;20020;-58
2022/09/21 12:14:21;;;;;;;0.95;0.60;;;;;;;;;;8326407;28;20017;-58
2022/09/21 12:18:21;;;;;;;1.35;0.80;;;;;;;;;;8325268;28;20124;-57
2022/09/21 12:22:26;;;;;;;2.03;0.70;;;;;;;;;;8320988;28;20012;-59
2022/09/21 12:26:30;;;;;;;1.77;0.80;;;;;;;;;;8325258;28;20036;-59
2022/09/21 12:30:31;;;;;;;2.30;0.90;;;;;;;;;;8327397;28;20038;-59
2022/09/21 12:34:40;;;;;;;4.80;0.80;;;;;;;;;;8326551;28;20032;-59
2022/09/21 12:38:51;;;;;;;0.98;0.70;;;;;;;;;;8326301;28;20163;-63
2022/09/21 12:42:54;;;;;;;1.95;0.80;;;;;;;;;;8326950;28;20032;-57
2022/09/21 12:47:26;;;;;;;1.30;0.70;;;;;;;;;;8310767;28;20034;-58
2022/09/21 12:51:32;;;;;;;3.90;0.80;;;;;;;;;;8317978;28;20120;-58
2022/09/21 12:55:50;;;;;;;2.25;0.82;;;;;;;;;;8326342;28;20043;-59
2022/09/21 13:00:00;;;;;;;0.77;0.55;;;;;;;;;;8326493;28;20472;-59
2022/09/21 13:04:19;;;;;;;3.25;1.10;;;;;;;;;;8327973;28;20117;-58
2022/09/21 13:08:27;;;;;;;3.00;0.82;;;;;;;;;;8325426;28;20021;-58
2022/09/21 13:12:32;;;;;;;1.15;0.60;;;;;;;;;;8322814;28;20017;-58
2022/09/21 13:16:35;;;;;;;2.10;0.70;;;;;;;;;;8324829;28;20855;-58
2022/09/21 13:20:37;;;;;;;0.80;0.65;;;;;;;;;;8324486;28;20033;-58
2022/09/21 13:24:37;;;;;;;1.73;0.60;;;;;;;;;;8322223;28;20029;-59
2022/09/21 13:28:40;;;;;;;1.17;0.70;;;;;;;;;;8320498;28;20136;-58
2022/09/21 13:32:50;;;;;;;1.75;0.70;;;;;;;;;;8321157;28;20106;-58
2022/09/21 13:37:17;;;;;;;2.53;0.80;;;;;;;;;;8315574;28;20968;-57
2022/09/21 13:41:17;;;;;;;0.68;0.60;;;;;;;;;;8319162;28;20025;-58
2022/09/21 13:45:17;;;;;;;1.00;0.63;;;;;;;;;;8319105;28;20051;-59
2022/09/21 13:49:30;;;;;;;0.85;0.70;;;;;;;;;;8319710;28;20056;-59
2022/09/21 13:53:34;;;;;;;4.00;1.05;;;;;;;;;;8324519;28;20776;-58
2022/09/21 13:57:40;;;;;;;4.18;0.77;;;;;;;;;;8321433;28;20021;-59
2022/09/21 14:01:40;;;;;;;0.68;0.60;;;;;;;;;;8325256;28;20041;-57
2022/09/21 14:05:43;;;;;;;3.60;0.80;;;;;;;;;;8324159;28;20116;-58
2022/09/21 14:10:13;;;;;;;1.05;0.80;;;;;;;;;;8322391;28;20394;-57
2022/09/21 14:14:27;;;;;;;0.80;0.60;;;;;;;;;;8305411;28;20034;-58
2022/09/21 14:18:36;;;;;;;0.60;0.60;;;;;;;;;;8325812;28;20037;-58
2022/09/21 14:22:37;;;;;;;1.50;0.77;;;;;;;;;;8326124;28;20107;-58
2022/09/21 14:26:41;;;;;;;2.25;0.95;;;;;;;;;;8328317;28;20137;-58
2022/09/21 14:30:47;;;;;;;1.13;0.82;;;;;;;;;;8323256;28;20064;-58
2022/09/21 14:34:49;;;;;;;0.82;0.80;;;;;;;;;;8324907;28;20043;-59
2022/09/21 14:38:51;;;;;;;3.40;0.70;;;;;;;;;;8323951;28;20086;-57
2022/09/21 14:42:53;;;;;;;1.58;0.70;;;;;;;;;;8322163;28;20031;-59
2022/09/21 14:46:59;;;;;;;1.05;0.70;;;;;;;;;;8326555;28;20040;-58
2022/09/21 14:51:03;;;;;;;1.10;0.65;;;;;;;;;;8323301;28;20263;-58
2022/09/21 14:55:04;;;;;;;4.13;1.10;;;;;;;;;;8327402;28;20025;-57
2022/09/21 14:59:07;;;;;;;0.70;0.70;;;;;;;;;;8323776;28;20028;-59
2022/09/21 15:03:07;;;;;;;0.90;0.60;;;;;;;;;;8321745;28;20144;-59
2022/09/21 15:11:37;;;;;;;1.35;0.70;;;;;;;;;;8324361;28;20039;-58
2022/09/21 15:15:44;;;;;;;0.82;0.70;;;;;;;;;;8322342;28;20598;-58
2022/09/21 15:19:45;;;;;;;1.15;0.60;;;;;;;;;;8325109;28;20040;-59
2022/09/21 15:23:46;;;;;;;2.05;0.70;;;;;;;;;;8325115;28;20017;-57
2022/09/21 15:27:47;;;;;;;1.00;0.60;;;;;;;;;;8325094;28;20037;-57
2022/09/21 15:31:47;;;;;;;0.77;0.60;;;;;;;;;;8325233;28;20148;-58
2022/09/21 15:35:47;;;;;;;0.68;0.60;;;;;;;;;;8325180;28;20018;-57
2022/09/21 15:39:58;;;;;;;1.45;0.70;;;;;;;;;;8324376;28;20036;-58
2022/09/21 15:44:05;;;;;;;1.95;0.70;;;;;;;;;;8328777;28;20025;-57
2022/09/21 15:48:09;;;;;;;0.77;0.70;;;;;;;;;;8327598;28;20099;-58
2022/09/21 15:52:11;;;;;;;0.80;0.60;;;;;;;;;;8332159;28;20113;-57
2022/09/21 15:56:19;;;;;;;0.70;0.70;;;;;;;;;;8329701;28;20036;-57
2022/09/21 16:00:21;;;;;;;1.40;0.73;;;;;;;;;;8330815;28;20106;-59
2022/09/21 16:04:23;;;;;;;0.60;0.60;;;;;;;;;;8332292;28;20746;-57
2022/09/21 16:08:34;;;;;;;1.40;0.70;;;;;;;;;;8329053;28;20032;-59
2022/09/21 16:12:39;;;;;;;1.23;0.70;;;;;;;;;;8329552;28;20048;-58
2022/09/21 16:16:58;;;;;;;0.93;0.70;;;;;;;;;;8326958;28;20037;-59
2022/09/21 16:21:06;;;;;;;1.23;0.75;;;;;;;;;;8327144;28;20101;-59
2022/09/21 16:25:27;;;;;;;0.63;0.60;;;;;;;;;;8329035;28;20441;-57
2022/09/21 16:29:42;;;;;;;0.70;0.50;;;;;;;;;;8329043;28;20025;-59
2022/09/21 16:33:56;;;;;;;0.80;0.60;;;;;;;;;;8326665;28;20045;-58
2022/09/21 16:37:57;;;;;;;1.75;0.80;;;;;;;;;;8324270;28;20098;-59
2022/09/21 16:42:00;;;;;;;0.80;0.70;;;;;;;;;;8329923;28;20029;-57
2022/09/21 16:46:02;;;;;;;0.60;0.60;;;;;;;;;;8320674;28;20823;-57
2022/09/21 16:50:06;;;;;;;0.77;0.77;;;;;;;;;;8321797;28;20286;-57
2022/09/21 16:54:07;;;;;;;0.52;0.52;;;;;;;;;;8326684;28;20131;-59
2022/09/21 16:58:07;;;;;;;0.50;0.50;;;;;;;;;;8329686;28;20021;-58
2022/09/21 17:02:09;;;;;;;0.65;0.55;;;;;;;;;;8328936;28;20036;-59
2022/09/21 17:06:18;;;;;;;0.57;0.57;;;;;;;;;;8332099;28;20541;-59
2022/09/21 17:10:19;;;;;;;1.38;0.60;;;;;;;;;;8327307;28;20025;-59
2022/09/21 17:14:19;;;;;;;0.50;0.50;;;;;;;;;;8324234;28;20021;-58
2022/09/21 17:18:19;;;;;;;2.10;0.60;;;;;;;;;;8326767;28;20033;-57
2022/09/21 17:22:20;;;;;;;0.50;0.50;;;;;;;;;;8328126;28;20369;-57
2022/09/21 17:26:20;;;;;;;1.75;0.60;;;;;;;;;;8325507;28;20035;-57
2022/09/21 17:30:22;;;;;;;1.20;0.50;;;;;;;;;;8324954;28;20558;-59
2022/09/21 17:34:26;;;;;;;0.52;0.50;;;;;;;;;;8328144;28;20036;-59
2022/09/21 17:38:26;;;;;;;0.52;0.50;;;;;;;;;;8325069;28;20033;-57
2022/09/21 17:42:28;;;;;;;0.50;0.50;;;;;;;;;;8325752;28;20716;-59
2022/09/21 17:46:34;;;;;;;1.15;0.60;;;;;;;;;;8321860;28;20044;-57
2022/09/21 17:50:35;;;;;;;0.90;0.55;;;;;;;;;;8324636;28;20039;-61
2022/09/21 17:54:38;;;;;;;0.53;0.50;;;;;;;;;;8322047;28;20151;-57
2022/09/21 17:58:55;;;;;;;1.17;0.90;;;;;;;;;;8322789;28;20409;-58
2022/09/21 18:02:56;;;;;;;1.33;0.90;;;;;;;;;;8322342;28;21022;-58
2022/09/21 18:06:56;;;;;;;2.15;0.80;;;;;;;;;;8323722;28;20921;-57
2022/09/21 18:11:06;;;;;;;1.77;1.00;;;;;;;;;;8323418;28;20041;-57
2022/09/21 18:15:06;;;;;;;1.23;1.05;;;;;;;;;;8321429;28;21230;-58
2022/09/21 18:19:09;;;;;;;3.30;1.50;;;;;;;;;;8325149;28;20028;-57
2022/09/21 18:23:09;;;;;;;5.20;1.40;;;;;;;;;;8322943;28;20025;-57
2022/09/21 18:27:10;;;;;;;1.90;1.30;;;;;;;;;;8322618;28;20470;-56
2022/09/21 18:31:23;;;;;;;2.13;1.50;;;;;;;;;;8318886;28;20029;-57
2022/09/21 18:35:33;;;;;;;3.95;2.60;;;;;;;;;;8321439;28;20114;-57
2022/09/21 18:39:39;;;;;;;10.57;2.53;;;;;;;;;;8322900;28;20128;-58
2022/09/21 18:43:48;;;;;;;5.35;2.47;;;;;;;;;;8320460;28;20870;-58
2022/09/21 18:47:48;;;;;;;10.55;4.90;;;;;;;;;;8320445;28;20049;-57
2022/09/21 18:52:01;;;;;;;7.88;3.47;;;;;;;;;;8323221;28;20028;-56
2022/09/21 18:56:01;;;;;;;4.75;2.53;;;;;;;;;;8321667;28;20028;-57
2022/09/21 19:00:02;;;;;;;2.80;1.80;;;;;;;;;;8324295;28;20826;-57
2022/09/21 19:04:02;;;;;;;3.72;2.00;;;;;;;;;;8320745;28;20525;-57
2022/09/21 19:08:09;;;;;;;6.05;1.60;;;;;;;;;;8321619;28;20029;-57
2022/09/21 19:12:14;;;;;;;4.03;1.60;;;;;;;;;;8321195;28;20028;-57
2022/09/21 19:16:22;;;;;;;1.70;1.20;;;;;;;;;;8321579;28;20036;-57
2022/09/21 19:20:26;;;;;;;2.72;1.05;;;;;;;;;;8325911;28;20021;-57
2022/09/21 19:24:29;;;;;;;2.30;1.10;;;;;;;;;;8330414;28;20020;-58
2022/09/21 19:28:38;;;;;;;2.83;1.20;;;;;;;;;;8323255;28;20111;-57
2022/09/21 19:32:42;;;;;;;1.85;1.15;;;;;;;;;;8326352;28;20910;-57
2022/09/21 19:36:43;;;;;;;1.25;0.98;;;;;;;;;;8325011;28;20033;-57
2022/09/21 19:40:47;;;;;;;3.13;1.23;;;;;;;;;;8326295;28;20876;-56
2022/09/21 19:45:06;;;;;;;5.50;1.25;;;;;;;;;;8328439;28;20021;-56
2022/09/21 19:49:17;;;;;;;1.15;1.00;;;;;;;;;;8329379;28;20131;-57
2022/09/21 19:59:41;;;;;;;1.08;0.98;;;;;;;;;;8325910;28;20074;-57
2022/09/21 20:02:27;;;;;;;0.95;0.95;;;;;;;;;;8323251;28;20438;-57
2022/09/21 20:06:36;;;;;;;1.10;1.00;;;;;;;;;;8324330;28;20033;-58
2022/09/21 20:10:46;;;;;;;2.05;1.10;;;;;;;;;;8327208;28;20143;-57
2022/09/21 20:14:49;;;;;;;1.67;1.08;;;;;;;;;;8324022;28;20107;-56
2022/09/21 20:18:53;;;;;;;1.40;1.08;;;;;;;;;;8328140;28;20045;-57
2022/09/21 20:22:53;;;;;;;1.00;1.00;;;;;;;;;;8325825;28;20507;-56
2022/09/21 20:26:54;;;;;;;3.50;1.10;;;;;;;;;;8326223;28;20881;-57
2022/09/21 20:30:54;;;;;;;1.00;0.90;;;;;;;;;;8325722;28;20036;-56
2022/09/21 20:34:54;;;;;;;1.10;1.00;;;;;;;;;;8324902;28;20137;-57
2022/09/21 20:38:56;;;;;;;2.33;1.30;;;;;;;;;;8325228;28;20128;-57
2022/09/21 20:42:57;;;;;;;1.45;1.00;;;;;;;;;;8326716;28;20051;-56
2022/09/21 20:46:57;;;;;;;2.42;1.10;;;;;;;;;;8325348;28;20041;-57
2022/09/21 20:51:00;;;;;;;1.42;0.93;;;;;;;;;;8322148;28;20025;-56
2022/09/21 20:55:00;;;;;;;2.63;1.10;;;;;;;;;;8325930;28;20020;-57
2022/09/21 20:59:00;;;;;;;1.52;0.80;;;;;;;;;;8327787;28;20076;-56
2022/09/21 21:03:00;;;;;;;0.70;0.70;;;;;;;;;;8320360;28;21001;-56
2022/09/21 21:07:01;;;;;;;1.75;0.95;;;;;;;;;;8321410;28;20050;-56
2022/09/21 21:11:01;;;;;;;1.08;0.80;;;;;;;;;;8326051;28;20833;-56
2022/09/21 21:15:01;;;;;;;3.03;0.90;;;;;;;;;;8325985;28;20060;-57
2022/09/21 21:19:01;;;;;;;2.53;0.77;;;;;;;;;;8324797;28;20036;-56
2022/09/21 21:23:02;;;;;;;1.73;0.70;;;;;;;;;;8323423;28;20079;-56
2022/09/21 21:27:02;;;;;;;1.27;0.80;;;;;;;;;;8323206;28;20028;-56
2022/09/21 21:31:02;;;;;;;0.93;0.80;;;;;;;;;;8329680;28;20125;-59
2022/09/21 21:35:03;;;;;;;0.98;0.88;;;;;;;;;;8320240;28;20025;-56
2022/09/21 21:39:03;;;;;;;1.17;0.70;;;;;;;;;;8324212;28;20029;-57
2022/09/21 21:43:03;;;;;;;2.22;0.80;;;;;;;;;;8325653;28;20086;-56
2022/09/21 21:47:04;;;;;;;1.13;0.73;;;;;;;;;;8321106;28;20082;-56
2022/09/21 21:51:05;;;;;;;2.88;0.88;;;;;;;;;;8323368;28;20079;-56
2022/09/21 21:55:06;;;;;;;0.90;0.90;;;;;;;;;;8320745;28;20070;-57
2022/09/21 21:59:06;;;;;;;2.15;0.88;;;;;;;;;;8321186;28;20090;-57
2022/09/21 22:03:06;;;;;;;0.70;0.70;;;;;;;;;;8319299;28;20113;-56
2022/09/21 22:07:06;;;;;;;1.45;0.80;;;;;;;;;;8320601;28;20125;-57
2022/09/21 22:11:07;;;;;;;1.63;0.80;;;;;;;;;;8323618;28;20537;-56
2022/09/21 22:15:07;;;;;;;0.80;0.80;;;;;;;;;;8321800;28;20017;-58
2022/09/21 22:19:08;;;;;;;1.08;0.80;;;;;;;;;;8323376;28;20017;-55
2022/09/21 22:23:08;;;;;;;4.85;0.88;;;;;;;;;;8320668;28;20794;-56
2022/09/21 22:27:08;;;;;;;0.70;0.70;;;;;;;;;;8322041;28;20802;-56
2022/09/21 22:31:10;;;;;;;2.58;0.85;;;;;;;;;;8321933;28;20870;-58
2022/09/21 22:35:10;;;;;;;2.08;0.80;;;;;;;;;;8322040;28;20025;-56
2022/09/21 22:39:11;;;;;;;0.97;0.87;;;;;;;;;;8320239;28;20036;-57
2022/09/21 22:43:12;;;;;;;0.77;0.77;;;;;;;;;;8321718;28;20024;-56
2022/09/21 22:47:12;;;;;;;1.17;0.90;;;;;;;;;;8321768;28;20105;-56
2022/09/21 22:51:12;;;;;;;0.60;0.60;;;;;;;;;;8323264;28;20023;-56
2022/09/21 22:55:13;;;;;;;2.03;0.90;;;;;;;;;;8323996;28;20131;-56
2022/09/21 22:59:13;;;;;;;0.73;0.73;;;;;;;;;;8324348;28;20394;-56
2022/09/21 23:03:13;;;;;;;0.80;0.80;;;;;;;;;;8324234;28;20029;-56
2022/09/21 23:07:14;;;;;;;1.05;0.93;;;;;;;;;;8322194;28;20123;-56
2022/09/21 23:11:16;;;;;;;0.70;0.70;;;;;;;;;;8323397;28;20025;-56
2022/09/21 23:15:16;;;;;;;1.25;0.80;;;;;;;;;;8324832;28;20029;-56
2022/09/21 23:19:17;;;;;;;1.67;1.23;;;;;;;;;;8322226;28;20021;-56
2022/09/21 23:23:17;;;;;;;0.60;0.60;;;;;;;;;;8321521;28;20013;-56
2022/09/21 23:27:17;;;;;;;0.93;0.90;;;;;;;;;;8322115;28;20036;-56
2022/09/21 23:31:17;;;;;;;1.27;0.93;;;;;;;;;;8325353;28;20124;-56
2022/09/21 23:35:17;;;;;;;1.73;0.90;;;;;;;;;;8323511;28;20082;-56
2022/09/21 23:39:18;;;;;;;1.27;0.63;;;;;;;;;;8325328;28;20319;-58
2022/09/21 23:43:18;;;;;;;1.10;1.00;;;;;;;;;;8324686;28;20020;-56
2022/09/21 23:47:18;;;;;;;0.90;0.90;;;;;;;;;;8324686;28;20041;-56
2022/09/21 23:51:19;;;;;;;0.80;0.80;;;;;;;;;;8321338;28;20037;-55
2022/09/21 23:55:19;;;;;;;1.48;1.00;;;;;;;;;;8321465;28;20288;-56
2022/09/21 23:59:19;;;;;;;1.92;0.80;;;;;;;;;;8324153;28;20021;-55
